sensor_id;sensor_type;location;lat;lon;timestamp;temperature;humidity
22426;DHT22;11380;50.822;15.790;2022-08-19T00:04:26;23.30;99.90
22426;DHT22;11380;50.822;15.790;2022-08-19T00:09:31;23.30;99.90
22426;DHT22;11380;50.822;15.790;2022-08-19T00:14:36;23.30;99.90
22426;DHT22;11380;50.822;15.790;2022-08-19T00:19:42;23.20;1.00
22426;DHT22;11380;50.822;15.790;2022-08-19T00:24:47;23.00;1.00
22426;DHT22;11380;50.822;15.790;2022-08-19T00:29:54;23.20;99.90
22426;DHT22;11380;50.822;15.790;2022-08-19T00:35:00;23.20;99.90
22426;DHT22;11380;50.822;15.790;2022-08-19T00:40:06;23.20;99.90
22426;DHT22;11380;50.822;15.790;2022-08-19T00:45:15;22.90;1.00
22426;DHT22;11380;50.822;15.790;2022-08-19T00:50:21;22.60;99.90
22426;DHT22;11380;50.822;15.790;2022-08-19T00:55:28;23.20;1.00
22426;DHT22;11380;50.822;15.790;2022-08-19T01:00:34;24.10;99.90
22426;DHT22;11380;50.822;15.790;2022-08-19T01:05:44;24.10;96.70
22426;DHT22;11380;50.822;15.790;2022-08-19T01:10:55;24.10;1.00
22426;DHT22;11380;50.822;15.790;2022-08-19T01:16:04;23.60;1.00
22426;DHT22;11380;50.822;15.790;2022-08-19T01:21:22;23.00;1.00
22426;DHT22;11380;50.822;15.790;2022-08-19T01:26:26;22.70;99.90
22426;DHT22;11380;50.822;15.790;2022-08-19T01:31:34;22.40;1.00
22426;DHT22;11380;50.822;15.790;2022-08-19T01:36:45;22.30;1.00
22426;DHT22;11380;50.822;15.790;2022-08-19T01:41:51;22.20;57.80
22426;DHT22;11380;50.822;15.790;2022-08-19T01:46:58;22.20;99.90
22426;DHT22;11380;50.822;15.790;2022-08-19T01:52:05;22.10;99.90
22426;DHT22;11380;50.822;15.790;2022-08-19T01:57:12;21.90;99.90
22426;DHT22;11380;50.822;15.790;2022-08-19T02:02:19;21.80;99.90
22426;DHT22;11380;50.822;15.790;2022-08-19T02:07:26;21.50;99.90
22426;DHT22;11380;50.822;15.790;2022-08-19T02:12:33;21.50;99.90
22426;DHT22;11380;50.822;15.790;2022-08-19T02:17:42;21.70;99.90
22426;DHT22;11380;50.822;15.790;2022-08-19T02:22:47;21.90;99.90
22426;DHT22;11380;50.822;15.790;2022-08-19T02:27:52;22.00;99.90
22426;DHT22;11380;50.822;15.790;2022-08-19T02:32:58;22.20;99.90
22426;DHT22;11380;50.822;15.790;2022-08-19T02:38:03;22.10;99.90
22426;DHT22;11380;50.822;15.790;2022-08-19T02:43:29;22.00;99.90
22426;DHT22;11380;50.822;15.790;2022-08-19T02:48:36;21.80;99.90
22426;DHT22;11380;50.822;15.790;2022-08-19T02:53:42;21.90;1.00
22426;DHT22;11380;50.822;15.790;2022-08-19T02:58:48;21.70;1.00
22426;DHT22;11380;50.822;15.790;2022-08-19T03:03:56;21.60;1.00
22426;DHT22;11380;50.822;15.790;2022-08-19T03:09:03;21.50;1.00
22426;DHT22;11380;50.822;15.790;2022-08-19T03:14:10;21.40;1.00
22426;DHT22;11380;50.822;15.790;2022-08-19T03:19:18;21.60;1.00
22426;DHT22;11380;50.822;15.790;2022-08-19T03:24:25;21.60;1.00
22426;DHT22;11380;50.822;15.790;2022-08-19T03:29:31;21.60;99.90
22426;DHT22;11380;50.822;15.790;2022-08-19T03:34:39;21.60;99.90
22426;DHT22;11380;50.822;15.790;2022-08-19T03:39:45;21.70;99.90
22426;DHT22;11380;50.822;15.790;2022-08-19T03:44:51;22.00;99.90
22426;DHT22;11380;50.822;15.790;2022-08-19T03:49:57;22.00;1.00
22426;DHT22;11380;50.822;15.790;2022-08-19T03:55:04;22.30;1.00
22426;DHT22;11380;50.822;15.790;2022-08-19T04:00:10;22.40;1.00
22426;DHT22;11380;50.822;15.790;2022-08-19T04:05:17;22.70;99.90
22426;DHT22;11380;50.822;15.790;2022-08-19T04:10:24;22.60;1.00
22426;DHT22;11380;50.822;15.790;2022-08-19T04:15:30;22.90;99.90
22426;DHT22;11380;50.822;15.790;2022-08-19T04:20:47;22.80;99.90
22426;DHT22;11380;50.822;15.790;2022-08-19T04:25:52;22.90;99.90
22426;DHT22;11380;50.822;15.790;2022-08-19T04:30:57;22.70;1.00
22426;DHT22;11380;50.822;15.790;2022-08-19T04:36:03;22.30;45.30
22426;DHT22;11380;50.822;15.790;2022-08-19T04:41:09;22.00;99.90
22426;DHT22;11380;50.822;15.790;2022-08-19T04:46:32;21.90;99.90
22426;DHT22;11380;50.822;15.790;2022-08-19T04:51:44;21.60;99.90
22426;DHT22;11380;50.822;15.790;2022-08-19T04:56:50;21.70;99.90
22426;DHT22;11380;50.822;15.790;2022-08-19T05:01:56;21.60;1.00
22426;DHT22;11380;50.822;15.790;2022-08-19T05:07:01;21.60;1.00
22426;DHT22;11380;50.822;15.790;2022-08-19T05:12:07;21.80;1.00
22426;DHT22;11380;50.822;15.790;2022-08-19T05:17:14;22.00;1.00
22426;DHT22;11380;50.822;15.790;2022-08-19T05:22:21;22.20;1.00
22426;DHT22;11380;50.822;15.790;2022-08-19T05:27:42;22.30;1.00
22426;DHT22;11380;50.822;15.790;2022-08-19T05:32:48;22.60;1.00
22426;DHT22;11380;50.822;15.790;2022-08-19T05:37:55;23.10;1.00
22426;DHT22;11380;50.822;15.790;2022-08-19T05:43:04;23.60;99.90
22426;DHT22;11380;50.822;15.790;2022-08-19T05:48:11;24.00;99.90
22426;DHT22;11380;50.822;15.790;2022-08-19T05:53:18;24.40;99.90
22426;DHT22;11380;50.822;15.790;2022-08-19T05:58:24;24.70;1.00
22426;DHT22;11380;50.822;15.790;2022-08-19T06:03:32;25.10;1.00
22426;DHT22;11380;50.822;15.790;2022-08-19T06:08:39;24.50;99.90
22426;DHT22;11380;50.822;15.790;2022-08-19T06:13:49;24.60;1.00
22426;DHT22;11380;50.822;15.790;2022-08-19T06:19:00;24.80;1.00
22426;DHT22;11380;50.822;15.790;2022-08-19T06:24:08;25.10;99.90
22426;DHT22;11380;50.822;15.790;2022-08-19T06:29:16;25.50;1.00
22426;DHT22;11380;50.822;15.790;2022-08-19T06:34:24;25.80;1.00
22426;DHT22;11380;50.822;15.790;2022-08-19T06:39:36;25.80;99.90
22426;DHT22;11380;50.822;15.790;2022-08-19T06:44:42;25.90;99.90
22426;DHT22;11380;50.822;15.790;2022-08-19T06:49:52;25.90;51.70
22426;DHT22;11380;50.822;15.790;2022-08-19T06:54:59;26.00;99.90
22426;DHT22;11380;50.822;15.790;2022-08-19T07:00:08;26.00;99.90
22426;DHT22;11380;50.822;15.790;2022-08-19T07:05:18;26.10;1.00
22426;DHT22;11380;50.822;15.790;2022-08-19T07:10:24;26.40;1.00
22426;DHT22;11380;50.822;15.790;2022-08-19T07:15:30;26.40;1.00
22426;DHT22;11380;50.822;15.790;2022-08-19T07:20:35;26.20;99.90
22426;DHT22;11380;50.822;15.790;2022-08-19T07:25:43;26.40;99.90
22426;DHT22;11380;50.822;15.790;2022-08-19T07:30:49;26.80;99.90
22426;DHT22;11380;50.822;15.790;2022-08-19T07:35:55;27.10;1.00
22426;DHT22;11380;50.822;15.790;2022-08-19T07:41:01;26.80;1.00
22426;DHT22;11380;50.822;15.790;2022-08-19T07:46:07;27.30;1.00
22426;DHT22;11380;50.822;15.790;2022-08-19T07:51:17;27.60;86.10
22426;DHT22;11380;50.822;15.790;2022-08-19T07:56:25;27.90;71.20
22426;DHT22;11380;50.822;15.790;2022-08-19T08:01:32;27.80;1.00
22426;DHT22;11380;50.822;15.790;2022-08-19T08:06:39;27.70;49.50
22426;DHT22;11380;50.822;15.790;2022-08-19T08:12:09;28.00;1.00
22426;DHT22;11380;50.822;15.790;2022-08-19T08:17:18;28.00;99.90
22426;DHT22;11380;50.822;15.790;2022-08-19T08:22:25;28.20;99.90
22426;DHT22;11380;50.822;15.790;2022-08-19T08:27:51;28.30;99.90
22426;DHT22;11380;50.822;15.790;2022-08-19T08:32:59;28.00;1.00
22426;DHT22;11380;50.822;15.790;2022-08-19T08:38:06;28.00;1.00
22426;DHT22;11380;50.822;15.790;2022-08-19T08:43:27;27.10;1.00
22426;DHT22;11380;50.822;15.790;2022-08-19T08:48:46;26.90;99.90
22426;DHT22;11380;50.822;15.790;2022-08-19T08:53:53;26.90;1.00
22426;DHT22;11380;50.822;15.790;2022-08-19T08:59:03;27.00;99.90
22426;DHT22;11380;50.822;15.790;2022-08-19T09:04:11;27.20;1.00
22426;DHT22;11380;50.822;15.790;2022-08-19T09:09:21;27.90;99.90
22426;DHT22;11380;50.822;15.790;2022-08-19T09:14:48;29.30;99.90
22426;DHT22;11380;50.822;15.790;2022-08-19T09:19:58;30.00;33.80
22426;DHT22;11380;50.822;15.790;2022-08-19T09:25:07;30.00;1.00
22426;DHT22;11380;50.822;15.790;2022-08-19T09:30:19;30.10;1.00
22426;DHT22;11380;50.822;15.790;2022-08-19T09:35:28;29.20;1.00
22426;DHT22;11380;50.822;15.790;2022-08-19T09:40:34;28.70;1.00
22426;DHT22;11380;50.822;15.790;2022-08-19T09:45:42;28.50;1.00
22426;DHT22;11380;50.822;15.790;2022-08-19T09:50:47;28.50;1.00
22426;DHT22;11380;50.822;15.790;2022-08-19T09:55:56;28.50;1.00
22426;DHT22;11380;50.822;15.790;2022-08-19T10:01:02;27.80;1.00
22426;DHT22;11380;50.822;15.790;2022-08-19T10:06:08;28.20;1.00
22426;DHT22;11380;50.822;15.790;2022-08-19T10:11:15;28.60;1.00
22426;DHT22;11380;50.822;15.790;2022-08-19T10:16:23;28.40;1.00
22426;DHT22;11380;50.822;15.790;2022-08-19T10:21:32;28.30;1.00
22426;DHT22;11380;50.822;15.790;2022-08-19T10:26:40;28.30;1.00
22426;DHT22;11380;50.822;15.790;2022-08-19T10:31:50;28.60;99.90
22426;DHT22;11380;50.822;15.790;2022-08-19T10:37:00;28.60;1.00
22426;DHT22;11380;50.822;15.790;2022-08-19T10:42:06;28.70;1.00
22426;DHT22;11380;50.822;15.790;2022-08-19T10:47:14;29.00;1.00
22426;DHT22;11380;50.822;15.790;2022-08-19T10:52:22;28.30;21.10
22426;DHT22;11380;50.822;15.790;2022-08-19T10:57:41;28.40;99.90
22426;DHT22;11380;50.822;15.790;2022-08-19T11:02:50;28.50;61.00
22426;DHT22;11380;50.822;15.790;2022-08-19T11:07:56;28.40;1.00
22426;DHT22;11380;50.822;15.790;2022-08-19T11:13:03;28.50;1.00
22426;DHT22;11380;50.822;15.790;2022-08-19T11:18:08;27.90;1.00
22426;DHT22;11380;50.822;15.790;2022-08-19T11:23:15;28.40;1.00
22426;DHT22;11380;50.822;15.790;2022-08-19T11:28:21;28.80;58.40
22426;DHT22;11380;50.822;15.790;2022-08-19T11:33:27;28.70;1.00
22426;DHT22;11380;50.822;15.790;2022-08-19T11:38:34;28.90;1.00
22426;DHT22;11380;50.822;15.790;2022-08-19T11:43:40;28.10;1.00
22426;DHT22;11380;50.822;15.790;2022-08-19T11:48:46;28.30;1.00
22426;DHT22;11380;50.822;15.790;2022-08-19T11:53:53;28.10;1.00
22426;DHT22;11380;50.822;15.790;2022-08-19T11:59:01;28.30;99.90
22426;DHT22;11380;50.822;15.790;2022-08-19T12:04:06;28.70;1.00
22426;DHT22;11380;50.822;15.790;2022-08-19T12:09:12;28.30;1.00
22426;DHT22;11380;50.822;15.790;2022-08-19T12:14:18;28.60;99.90
22426;DHT22;11380;50.822;15.790;2022-08-19T12:19:24;28.40;99.90
22426;DHT22;11380;50.822;15.790;2022-08-19T12:24:33;28.50;99.90
22426;DHT22;11380;50.822;15.790;2022-08-19T12:29:38;28.60;1.00
22426;DHT22;11380;50.822;15.790;2022-08-19T12:34:44;28.60;99.90
22426;DHT22;11380;50.822;15.790;2022-08-19T12:39:50;28.90;93.00
22426;DHT22;11380;50.822;15.790;2022-08-19T12:44:56;29.20;1.00
22426;DHT22;11380;50.822;15.790;2022-08-19T12:50:01;29.90;99.90
22426;DHT22;11380;50.822;15.790;2022-08-19T12:55:09;29.30;1.00
22426;DHT22;11380;50.822;15.790;2022-08-19T13:00:18;29.30;1.00
22426;DHT22;11380;50.822;15.790;2022-08-19T13:05:28;29.10;99.90
22426;DHT22;11380;50.822;15.790;2022-08-19T13:10:36;28.80;99.90
22426;DHT22;11380;50.822;15.790;2022-08-19T13:15:43;29.00;99.90
22426;DHT22;11380;50.822;15.790;2022-08-19T13:20:49;28.80;71.10
22426;DHT22;11380;50.822;15.790;2022-08-19T13:25:58;28.60;99.90
22426;DHT22;11380;50.822;15.790;2022-08-19T13:31:04;29.30;99.90
22426;DHT22;11380;50.822;15.790;2022-08-19T13:36:27;29.20;99.90
22426;DHT22;11380;50.822;15.790;2022-08-19T13:41:33;29.10;1.00
22426;DHT22;11380;50.822;15.790;2022-08-19T13:46:38;29.40;1.00
22426;DHT22;11380;50.822;15.790;2022-08-19T13:51:44;29.20;1.00
22426;DHT22;11380;50.822;15.790;2022-08-19T13:56:49;28.90;2.10
22426;DHT22;11380;50.822;15.790;2022-08-19T14:01:59;28.50;99.90
22426;DHT22;11380;50.822;15.790;2022-08-19T14:07:05;28.50;1.00
22426;DHT22;11380;50.822;15.790;2022-08-19T14:12:10;28.40;99.90
22426;DHT22;11380;50.822;15.790;2022-08-19T14:17:16;28.30;1.00
22426;DHT22;11380;50.822;15.790;2022-08-19T14:22:22;28.20;1.00
22426;DHT22;11380;50.822;15.790;2022-08-19T14:27:28;28.20;43.80
22426;DHT22;11380;50.822;15.790;2022-08-19T14:32:34;28.20;1.00
22426;DHT22;11380;50.822;15.790;2022-08-19T14:37:40;28.30;52.60
22426;DHT22;11380;50.822;15.790;2022-08-19T14:42:47;27.90;99.90
22426;DHT22;11380;50.822;15.790;2022-08-19T14:47:53;28.40;73.70
22426;DHT22;11380;50.822;15.790;2022-08-19T14:53:02;28.20;84.40
22426;DHT22;11380;50.822;15.790;2022-08-19T14:58:11;28.30;99.90
22426;DHT22;11380;50.822;15.790;2022-08-19T15:03:19;27.60;1.00
22426;DHT22;11380;50.822;15.790;2022-08-19T15:08:26;27.60;1.00
22426;DHT22;11380;50.822;15.790;2022-08-19T15:13:32;26.80;99.90
22426;DHT22;11380;50.822;15.790;2022-08-19T15:18:37;26.50;74.40
22426;DHT22;11380;50.822;15.790;2022-08-19T15:23:42;26.30;1.00
22426;DHT22;11380;50.822;15.790;2022-08-19T15:28:50;26.60;99.90
22426;DHT22;11380;50.822;15.790;2022-08-19T15:33:56;26.60;1.00
22426;DHT22;11380;50.822;15.790;2022-08-19T15:39:03;26.50;99.90
22426;DHT22;11380;50.822;15.790;2022-08-19T15:44:12;26.40;1.00
22426;DHT22;11380;50.822;15.790;2022-08-19T15:49:19;26.20;99.90
22426;DHT22;11380;50.822;15.790;2022-08-19T15:54:24;26.20;1.00
22426;DHT22;11380;50.822;15.790;2022-08-19T15:59:30;26.40;1.00
22426;DHT22;11380;50.822;15.790;2022-08-19T16:04:55;26.40;1.00
22426;DHT22;11380;50.822;15.790;2022-08-19T16:10:17;26.50;1.00
22426;DHT22;11380;50.822;15.790;2022-08-19T16:15:26;26.40;99.90
22426;DHT22;11380;50.822;15.790;2022-08-19T16:20:34;26.30;1.00
22426;DHT22;11380;50.822;15.790;2022-08-19T16:25:39;26.20;1.00
22426;DHT22;11380;50.822;15.790;2022-08-19T16:30:44;26.10;1.00
22426;DHT22;11380;50.822;15.790;2022-08-19T16:35:51;26.10;1.00
22426;DHT22;11380;50.822;15.790;2022-08-19T16:40:59;26.00;1.00
22426;DHT22;11380;50.822;15.790;2022-08-19T16:46:04;25.80;1.00
22426;DHT22;11380;50.822;15.790;2022-08-19T16:51:10;25.90;1.00
22426;DHT22;11380;50.822;15.790;2022-08-19T16:56:17;25.80;1.00
22426;DHT22;11380;50.822;15.790;2022-08-19T17:01:23;25.70;1.00
22426;DHT22;11380;50.822;15.790;2022-08-19T17:06:30;25.70;1.00
22426;DHT22;11380;50.822;15.790;2022-08-19T17:11:36;25.60;1.00
22426;DHT22;11380;50.822;15.790;2022-08-19T17:16:42;25.40;99.90
22426;DHT22;11380;50.822;15.790;2022-08-19T17:21:47;25.20;99.90
22426;DHT22;11380;50.822;15.790;2022-08-19T17:26:53;25.10;65.90
22426;DHT22;11380;50.822;15.790;2022-08-19T17:31:59;25.00;99.90
22426;DHT22;11380;50.822;15.790;2022-08-19T17:37:05;25.00;99.90
22426;DHT22;11380;50.822;15.790;2022-08-19T17:42:11;24.90;99.90
22426;DHT22;11380;50.822;15.790;2022-08-19T17:47:17;24.90;99.90
22426;DHT22;11380;50.822;15.790;2022-08-19T17:52:23;24.80;99.90
22426;DHT22;11380;50.822;15.790;2022-08-19T17:57:29;24.50;99.90
22426;DHT22;11380;50.822;15.790;2022-08-19T18:02:43;24.60;99.90
22426;DHT22;11380;50.822;15.790;2022-08-19T18:07:49;24.40;99.90
22426;DHT22;11380;50.822;15.790;2022-08-19T18:12:57;24.40;99.90
22426;DHT22;11380;50.822;15.790;2022-08-19T18:18:08;24.30;99.90
22426;DHT22;11380;50.822;15.790;2022-08-19T18:23:16;24.40;99.90
22426;DHT22;11380;50.822;15.790;2022-08-19T18:28:23;24.40;99.90
22426;DHT22;11380;50.822;15.790;2022-08-19T18:33:29;24.20;1.00
22426;DHT22;11380;50.822;15.790;2022-08-19T18:38:34;24.00;1.00
22426;DHT22;11380;50.822;15.790;2022-08-19T18:43:58;23.90;1.00
22426;DHT22;11380;50.822;15.790;2022-08-19T18:49:26;23.70;1.00
22426;DHT22;11380;50.822;15.790;2022-08-19T18:54:32;23.70;1.00
22426;DHT22;11380;50.822;15.790;2022-08-19T18:59:40;23.70;1.00
22426;DHT22;11380;50.822;15.790;2022-08-19T19:04:46;23.70;1.00
22426;DHT22;11380;50.822;15.790;2022-08-19T19:09:52;23.80;1.00
22426;DHT22;11380;50.822;15.790;2022-08-19T19:14:59;24.00;1.00
22426;DHT22;11380;50.822;15.790;2022-08-19T19:20:07;23.80;1.00
22426;DHT22;11380;50.822;15.790;2022-08-19T19:25:13;23.70;1.00
22426;DHT22;11380;50.822;15.790;2022-08-19T19:30:18;23.70;1.00
22426;DHT22;11380;50.822;15.790;2022-08-19T19:35:26;23.40;1.00
22426;DHT22;11380;50.822;15.790;2022-08-19T19:40:34;23.50;1.00
22426;DHT22;11380;50.822;15.790;2022-08-19T19:45:39;23.20;1.00
22426;DHT22;11380;50.822;15.790;2022-08-19T19:50:44;23.20;1.00
22426;DHT22;11380;50.822;15.790;2022-08-19T19:55:52;23.10;1.00
22426;DHT22;11380;50.822;15.790;2022-08-19T20:01:04;23.10;1.00
22426;DHT22;11380;50.822;15.790;2022-08-19T20:06:14;23.20;1.00
22426;DHT22;11380;50.822;15.790;2022-08-19T20:11:35;23.20;1.00
22426;DHT22;11380;50.822;15.790;2022-08-19T20:16:43;23.30;1.00
22426;DHT22;11380;50.822;15.790;2022-08-19T20:21:51;23.40;1.00
22426;DHT22;11380;50.822;15.790;2022-08-19T20:26:59;23.10;1.00
22426;DHT22;11380;50.822;15.790;2022-08-19T20:32:07;23.10;1.00
22426;DHT22;11380;50.822;15.790;2022-08-19T20:37:13;23.30;1.00
22426;DHT22;11380;50.822;15.790;2022-08-19T20:42:18;23.20;1.00
22426;DHT22;11380;50.822;15.790;2022-08-19T20:47:23;22.90;1.00
22426;DHT22;11380;50.822;15.790;2022-08-19T20:52:28;22.90;1.00
22426;DHT22;11380;50.822;15.790;2022-08-19T20:57:34;22.80;1.00
22426;DHT22;11380;50.822;15.790;2022-08-19T21:02:40;23.10;1.00
22426;DHT22;11380;50.822;15.790;2022-08-19T21:07:46;23.00;1.00
22426;DHT22;11380;50.822;15.790;2022-08-19T21:12:52;22.80;1.00
22426;DHT22;11380;50.822;15.790;2022-08-19T21:17:58;22.80;1.00
22426;DHT22;11380;50.822;15.790;2022-08-19T21:23:06;22.80;1.00
22426;DHT22;11380;50.822;15.790;2022-08-19T21:28:13;22.80;1.00
22426;DHT22;11380;50.822;15.790;2022-08-19T21:33:21;22.80;1.00
22426;DHT22;11380;50.822;15.790;2022-08-19T21:38:27;22.70;1.00
22426;DHT22;11380;50.822;15.790;2022-08-19T21:43:34;22.70;1.00
22426;DHT22;11380;50.822;15.790;2022-08-19T21:48:40;22.60;1.00
22426;DHT22;11380;50.822;15.790;2022-08-19T21:53:46;22.40;1.00
22426;DHT22;11380;50.822;15.790;2022-08-19T21:58:54;22.40;1.00
22426;DHT22;11380;50.822;15.790;2022-08-19T22:04:00;22.40;1.00
22426;DHT22;11380;50.822;15.790;2022-08-19T22:09:05;22.40;1.00
22426;DHT22;11380;50.822;15.790;2022-08-19T22:14:14;22.50;1.00
22426;DHT22;11380;50.822;15.790;2022-08-19T22:19:21;22.50;1.00
22426;DHT22;11380;50.822;15.790;2022-08-19T22:24:33;22.40;1.00
22426;DHT22;11380;50.822;15.790;2022-08-19T22:29:36;22.20;1.00
22426;DHT22;11380;50.822;15.790;2022-08-19T22:34:43;22.00;1.00
22426;DHT22;11380;50.822;15.790;2022-08-19T22:39:49;22.30;1.00
22426;DHT22;11380;50.822;15.790;2022-08-19T22:44:56;22.30;1.00
22426;DHT22;11380;50.822;15.790;2022-08-19T22:50:04;22.40;1.00
22426;DHT22;11380;50.822;15.790;2022-08-19T22:55:11;22.30;1.00
22426;DHT22;11380;50.822;15.790;2022-08-19T23:00:20;22.20;1.00
22426;DHT22;11380;50.822;15.790;2022-08-19T23:05:27;22.00;1.00
22426;DHT22;11380;50.822;15.790;2022-08-19T23:10:34;22.00;1.00
22426;DHT22;11380;50.822;15.790;2022-08-19T23:15:39;22.20;1.00
22426;DHT22;11380;50.822;15.790;2022-08-19T23:20:45;22.10;1.00
22426;DHT22;11380;50.822;15.790;2022-08-19T23:25:52;22.30;1.00
22426;DHT22;11380;50.822;15.790;2022-08-19T23:30:58;22.10;1.00
22426;DHT22;11380;50.822;15.790;2022-08-19T23:36:12;22.20;1.00
22426;DHT22;11380;50.822;15.790;2022-08-19T23:41:20;22.20;1.00
22426;DHT22;11380;50.822;15.790;2022-08-19T23:46:26;22.30;1.00
22426;DHT22;11380;50.822;15.790;2022-08-19T23:51:33;22.20;1.00
22426;DHT22;11380;50.822;15.790;2022-08-19T23:56:38;22.10;1.00
